sensor_id;sensor_type;location;lat;lon;timestamp;P1;durP1;ratioP1;P2;durP2;ratioP2
2191;SDS011;1102;49.718;11.902;2022-08-03T00:01:22;19.83;;;5.63;;
2191;SDS011;1102;49.718;11.902;2022-08-03T00:03:49;8.93;;;5.40;;
2191;SDS011;1102;49.718;11.902;2022-08-03T00:06:16;5.97;;;4.60;;
2191;SDS011;1102;49.718;11.902;2022-08-03T00:08:43;9.77;;;6.00;;
2191;SDS011;1102;49.718;11.902;2022-08-03T00:11:09;6.93;;;5.00;;
2191;SDS011;1102;49.718;11.902;2022-08-03T00:13:36;7.00;;;6.13;;
2191;SDS011;1102;49.718;11.902;2022-08-03T00:16:03;7.80;;;5.53;;
2191;SDS011;1102;49.718;11.902;2022-08-03T00:18:30;8.10;;;6.00;;
2191;SDS011;1102;49.718;11.902;2022-08-03T00:20:57;9.10;;;5.50;;
2191;SDS011;1102;49.718;11.902;2022-08-03T00:23:23;6.77;;;6.00;;
2191;SDS011;1102;49.718;11.902;2022-08-03T00:25:50;6.33;;;5.43;;
2191;SDS011;1102;49.718;11.902;2022-08-03T00:28:17;6.30;;;5.30;;
2191;SDS011;1102;49.718;11.902;2022-08-03T00:30:44;9.70;;;5.90;;
2191;SDS011;1102;49.718;11.902;2022-08-03T00:33:10;8.80;;;5.00;;
2191;SDS011;1102;49.718;11.902;2022-08-03T00:35:39;7.73;;;5.43;;
2191;SDS011;1102;49.718;11.902;2022-08-03T00:38:16;8.50;;;5.67;;
2191;SDS011;1102;49.718;11.902;2022-08-03T00:40:44;6.27;;;5.67;;
2191;SDS011;1102;49.718;11.902;2022-08-03T00:43:11;6.53;;;5.30;;
2191;SDS011;1102;49.718;11.902;2022-08-03T00:45:39;5.70;;;4.97;;
2191;SDS011;1102;49.718;11.902;2022-08-03T00:48:07;5.93;;;5.40;;
2191;SDS011;1102;49.718;11.902;2022-08-03T00:50:54;7.23;;;5.00;;
2191;SDS011;1102;49.718;11.902;2022-08-03T00:53:21;6.73;;;5.53;;
2191;SDS011;1102;49.718;11.902;2022-08-03T00:55:48;6.13;;;4.60;;
2191;SDS011;1102;49.718;11.902;2022-08-03T00:58:15;8.10;;;5.33;;
2191;SDS011;1102;49.718;11.902;2022-08-03T01:00:42;8.00;;;5.80;;
2191;SDS011;1102;49.718;11.902;2022-08-03T01:03:09;6.67;;;5.40;;
2191;SDS011;1102;49.718;11.902;2022-08-03T01:05:39;7.70;;;5.60;;
2191;SDS011;1102;49.718;11.902;2022-08-03T01:08:22;12.47;;;6.30;;
2191;SDS011;1102;49.718;11.902;2022-08-03T01:11:04;6.50;;;4.87;;
2191;SDS011;1102;49.718;11.902;2022-08-03T01:13:44;11.13;;;5.80;;
2191;SDS011;1102;49.718;11.902;2022-08-03T01:24:49;10.80;;;6.70;;
2191;SDS011;1102;49.718;11.902;2022-08-03T01:30:32;7.00;;;5.27;;
2191;SDS011;1102;49.718;11.902;2022-08-03T01:33:05;11.73;;;6.10;;
2191;SDS011;1102;49.718;11.902;2022-08-03T01:35:42;13.53;;;6.80;;
2191;SDS011;1102;49.718;11.902;2022-08-03T01:38:13;9.70;;;6.40;;
2191;SDS011;1102;49.718;11.902;2022-08-03T01:40:43;13.63;;;6.30;;
2191;SDS011;1102;49.718;11.902;2022-08-03T01:43:15;11.27;;;6.30;;
2191;SDS011;1102;49.718;11.902;2022-08-03T01:46:05;10.83;;;5.83;;
2191;SDS011;1102;49.718;11.902;2022-08-03T01:48:35;12.77;;;6.30;;
2191;SDS011;1102;49.718;11.902;2022-08-03T01:51:05;6.47;;;5.77;;
2191;SDS011;1102;49.718;11.902;2022-08-03T01:53:34;9.90;;;6.70;;
2191;SDS011;1102;49.718;11.902;2022-08-03T01:56:03;8.00;;;5.93;;
2191;SDS011;1102;49.718;11.902;2022-08-03T01:58:32;12.63;;;6.60;;
2191;SDS011;1102;49.718;11.902;2022-08-03T02:01:02;8.80;;;5.97;;
2191;SDS011;1102;49.718;11.902;2022-08-03T02:03:31;12.07;;;6.70;;
2191;SDS011;1102;49.718;11.902;2022-08-03T02:06:01;16.33;;;7.40;;
2191;SDS011;1102;49.718;11.902;2022-08-03T02:08:49;8.27;;;5.10;;
2191;SDS011;1102;49.718;11.902;2022-08-03T02:11:18;8.33;;;5.97;;
2191;SDS011;1102;49.718;11.902;2022-08-03T02:13:45;8.50;;;5.90;;
2191;SDS011;1102;49.718;11.902;2022-08-03T02:16:16;9.63;;;6.50;;
2191;SDS011;1102;49.718;11.902;2022-08-03T02:18:44;10.93;;;5.87;;
2191;SDS011;1102;49.718;11.902;2022-08-03T02:21:13;13.00;;;6.37;;
2191;SDS011;1102;49.718;11.902;2022-08-03T02:24:01;13.30;;;5.57;;
2191;SDS011;1102;49.718;11.902;2022-08-03T02:26:30;6.17;;;5.57;;
2191;SDS011;1102;49.718;11.902;2022-08-03T02:29:00;7.70;;;6.37;;
2191;SDS011;1102;49.718;11.902;2022-08-03T02:31:32;11.57;;;6.30;;
2191;SDS011;1102;49.718;11.902;2022-08-03T02:34:02;9.60;;;6.50;;
2191;SDS011;1102;49.718;11.902;2022-08-03T02:36:35;10.63;;;7.20;;
2191;SDS011;1102;49.718;11.902;2022-08-03T02:39:04;7.60;;;5.30;;
2191;SDS011;1102;49.718;11.902;2022-08-03T02:41:42;9.47;;;6.70;;
2191;SDS011;1102;49.718;11.902;2022-08-03T02:44:12;8.23;;;5.70;;
2191;SDS011;1102;49.718;11.902;2022-08-03T02:46:43;11.33;;;6.40;;
2191;SDS011;1102;49.718;11.902;2022-08-03T02:49:12;8.30;;;5.83;;
2191;SDS011;1102;49.718;11.902;2022-08-03T02:52:01;7.63;;;5.90;;
2191;SDS011;1102;49.718;11.902;2022-08-03T02:54:29;10.83;;;6.30;;
2191;SDS011;1102;49.718;11.902;2022-08-03T02:56:59;14.50;;;6.43;;
2191;SDS011;1102;49.718;11.902;2022-08-03T02:59:27;13.33;;;6.93;;
2191;SDS011;1102;49.718;11.902;2022-08-03T03:01:56;9.27;;;6.40;;
2191;SDS011;1102;49.718;11.902;2022-08-03T03:04:26;24.37;;;7.07;;
2191;SDS011;1102;49.718;11.902;2022-08-03T03:06:58;7.97;;;5.73;;
2191;SDS011;1102;49.718;11.902;2022-08-03T03:09:29;12.60;;;5.93;;
2191;SDS011;1102;49.718;11.902;2022-08-03T03:12:08;11.47;;;5.60;;
2191;SDS011;1102;49.718;11.902;2022-08-03T03:14:37;12.80;;;6.73;;
2191;SDS011;1102;49.718;11.902;2022-08-03T03:17:11;8.80;;;6.13;;
2191;SDS011;1102;49.718;11.902;2022-08-03T03:19:40;11.13;;;5.50;;
2191;SDS011;1102;49.718;11.902;2022-08-03T03:22:08;11.57;;;6.30;;
2191;SDS011;1102;49.718;11.902;2022-08-03T03:24:36;13.47;;;7.07;;
2191;SDS011;1102;49.718;11.902;2022-08-03T03:27:04;16.90;;;7.43;;
2191;SDS011;1102;49.718;11.902;2022-08-03T03:29:31;10.50;;;6.70;;
2191;SDS011;1102;49.718;11.902;2022-08-03T03:32:04;11.50;;;6.67;;
2191;SDS011;1102;49.718;11.902;2022-08-03T03:34:34;10.30;;;6.17;;
2191;SDS011;1102;49.718;11.902;2022-08-03T03:37:01;9.10;;;6.43;;
2191;SDS011;1102;49.718;11.902;2022-08-03T03:39:28;14.53;;;5.70;;
2191;SDS011;1102;49.718;11.902;2022-08-03T03:41:55;9.93;;;7.37;;
2191;SDS011;1102;49.718;11.902;2022-08-03T03:44:25;11.43;;;6.17;;
2191;SDS011;1102;49.718;11.902;2022-08-03T03:46:56;7.77;;;6.37;;
2191;SDS011;1102;49.718;11.902;2022-08-03T03:49:23;10.40;;;5.83;;
2191;SDS011;1102;49.718;11.902;2022-08-03T03:51:53;11.90;;;7.37;;
2191;SDS011;1102;49.718;11.902;2022-08-03T03:54:20;8.50;;;6.70;;
2191;SDS011;1102;49.718;11.902;2022-08-03T03:56:54;8.80;;;5.50;;
2191;SDS011;1102;49.718;11.902;2022-08-03T03:59:20;9.37;;;6.80;;
2191;SDS011;1102;49.718;11.902;2022-08-03T04:01:47;9.80;;;5.20;;
2191;SDS011;1102;49.718;11.902;2022-08-03T04:04:24;11.90;;;6.90;;
2191;SDS011;1102;49.718;11.902;2022-08-03T04:07:09;9.60;;;6.33;;
2191;SDS011;1102;49.718;11.902;2022-08-03T04:09:54;8.07;;;6.57;;
2191;SDS011;1102;49.718;11.902;2022-08-03T04:12:41;8.93;;;6.17;;
2191;SDS011;1102;49.718;11.902;2022-08-03T04:15:17;12.83;;;6.10;;
2191;SDS011;1102;49.718;11.902;2022-08-03T04:17:47;9.20;;;5.53;;
2191;SDS011;1102;49.718;11.902;2022-08-03T04:20:17;8.13;;;5.50;;
2191;SDS011;1102;49.718;11.902;2022-08-03T04:22:49;12.70;;;6.43;;
2191;SDS011;1102;49.718;11.902;2022-08-03T04:25:18;8.27;;;6.50;;
2191;SDS011;1102;49.718;11.902;2022-08-03T04:27:49;7.83;;;5.90;;
2191;SDS011;1102;49.718;11.902;2022-08-03T04:30:37;14.73;;;6.30;;
2191;SDS011;1102;49.718;11.902;2022-08-03T04:33:12;11.53;;;6.37;;
2191;SDS011;1102;49.718;11.902;2022-08-03T04:35:43;8.63;;;6.60;;
2191;SDS011;1102;49.718;11.902;2022-08-03T04:38:29;10.07;;;6.60;;
2191;SDS011;1102;49.718;11.902;2022-08-03T04:40:58;6.80;;;6.10;;
2191;SDS011;1102;49.718;11.902;2022-08-03T04:43:26;15.03;;;6.67;;
2191;SDS011;1102;49.718;11.902;2022-08-03T04:45:54;10.47;;;6.63;;
2191;SDS011;1102;49.718;11.902;2022-08-03T04:48:22;13.73;;;7.47;;
2191;SDS011;1102;49.718;11.902;2022-08-03T04:50:49;9.20;;;7.93;;
2191;SDS011;1102;49.718;11.902;2022-08-03T04:53:17;8.00;;;6.17;;
2191;SDS011;1102;49.718;11.902;2022-08-03T04:55:44;10.87;;;6.10;;
2191;SDS011;1102;49.718;11.902;2022-08-03T04:58:11;7.50;;;6.10;;
2191;SDS011;1102;49.718;11.902;2022-08-03T05:00:38;10.33;;;6.17;;
2191;SDS011;1102;49.718;11.902;2022-08-03T05:03:04;10.20;;;6.27;;
2191;SDS011;1102;49.718;11.902;2022-08-03T05:05:49;10.87;;;6.50;;
2191;SDS011;1102;49.718;11.902;2022-08-03T05:08:36;11.63;;;6.40;;
2191;SDS011;1102;49.718;11.902;2022-08-03T05:11:13;10.50;;;7.07;;
2191;SDS011;1102;49.718;11.902;2022-08-03T05:13:40;8.47;;;6.80;;
2191;SDS011;1102;49.718;11.902;2022-08-03T05:16:07;8.23;;;6.63;;
2191;SDS011;1102;49.718;11.902;2022-08-03T05:18:34;11.43;;;6.00;;
2191;SDS011;1102;49.718;11.902;2022-08-03T05:21:01;9.67;;;6.60;;
2191;SDS011;1102;49.718;11.902;2022-08-03T05:23:28;9.47;;;6.47;;
2191;SDS011;1102;49.718;11.902;2022-08-03T05:25:54;8.00;;;5.87;;
2191;SDS011;1102;49.718;11.902;2022-08-03T05:28:21;8.37;;;7.47;;
2191;SDS011;1102;49.718;11.902;2022-08-03T05:30:48;6.80;;;6.20;;
2191;SDS011;1102;49.718;11.902;2022-08-03T05:33:15;10.23;;;5.87;;
2191;SDS011;1102;49.718;11.902;2022-08-03T05:35:41;7.70;;;6.33;;
2191;SDS011;1102;49.718;11.902;2022-08-03T05:38:28;9.43;;;6.10;;
2191;SDS011;1102;49.718;11.902;2022-08-03T05:41:00;8.17;;;6.70;;
2191;SDS011;1102;49.718;11.902;2022-08-03T05:43:48;7.47;;;6.67;;
2191;SDS011;1102;49.718;11.902;2022-08-03T05:46:14;9.20;;;6.47;;
2191;SDS011;1102;49.718;11.902;2022-08-03T05:48:41;9.87;;;6.80;;
2191;SDS011;1102;49.718;11.902;2022-08-03T05:51:08;9.13;;;8.27;;
2191;SDS011;1102;49.718;11.902;2022-08-03T05:53:37;9.50;;;6.70;;
2191;SDS011;1102;49.718;11.902;2022-08-03T05:56:05;9.70;;;7.53;;
2191;SDS011;1102;49.718;11.902;2022-08-03T05:58:44;8.03;;;6.63;;
2191;SDS011;1102;49.718;11.902;2022-08-03T06:01:13;8.87;;;5.60;;
2191;SDS011;1102;49.718;11.902;2022-08-03T06:03:41;10.03;;;7.00;;
2191;SDS011;1102;49.718;11.902;2022-08-03T06:06:08;9.20;;;6.23;;
2191;SDS011;1102;49.718;11.902;2022-08-03T06:08:34;7.70;;;6.90;;
2191;SDS011;1102;49.718;11.902;2022-08-03T06:11:02;8.40;;;7.37;;
2191;SDS011;1102;49.718;11.902;2022-08-03T06:13:29;10.07;;;6.67;;
2191;SDS011;1102;49.718;11.902;2022-08-03T06:15:55;8.70;;;6.77;;
2191;SDS011;1102;49.718;11.902;2022-08-03T06:18:22;10.57;;;7.07;;
2191;SDS011;1102;49.718;11.902;2022-08-03T06:20:50;12.10;;;6.70;;
2191;SDS011;1102;49.718;11.902;2022-08-03T06:23:17;7.13;;;6.00;;
2191;SDS011;1102;49.718;11.902;2022-08-03T06:25:45;9.20;;;6.40;;
2191;SDS011;1102;49.718;11.902;2022-08-03T06:28:12;11.13;;;6.57;;
2191;SDS011;1102;49.718;11.902;2022-08-03T06:30:59;6.03;;;5.57;;
2191;SDS011;1102;49.718;11.902;2022-08-03T06:33:27;8.80;;;5.03;;
2191;SDS011;1102;49.718;11.902;2022-08-03T06:36:14;5.50;;;5.00;;
2191;SDS011;1102;49.718;11.902;2022-08-03T06:38:41;5.50;;;5.00;;
2191;SDS011;1102;49.718;11.902;2022-08-03T06:41:07;4.90;;;4.50;;
2191;SDS011;1102;49.718;11.902;2022-08-03T06:43:34;4.67;;;3.53;;
2191;SDS011;1102;49.718;11.902;2022-08-03T06:46:03;4.00;;;3.70;;
2191;SDS011;1102;49.718;11.902;2022-08-03T06:48:33;4.80;;;4.40;;
2191;SDS011;1102;49.718;11.902;2022-08-03T06:50:59;4.83;;;4.47;;
2191;SDS011;1102;49.718;11.902;2022-08-03T06:53:26;4.80;;;4.50;;
2191;SDS011;1102;49.718;11.902;2022-08-03T06:55:53;5.80;;;5.30;;
2191;SDS011;1102;49.718;11.902;2022-08-03T06:58:21;4.37;;;3.97;;
2191;SDS011;1102;49.718;11.902;2022-08-03T07:00:48;4.67;;;4.23;;
2191;SDS011;1102;49.718;11.902;2022-08-03T07:03:15;4.50;;;4.20;;
2191;SDS011;1102;49.718;11.902;2022-08-03T07:05:42;5.20;;;4.63;;
2191;SDS011;1102;49.718;11.902;2022-08-03T07:08:11;4.73;;;4.33;;
2191;SDS011;1102;49.718;11.902;2022-08-03T07:10:38;4.50;;;4.10;;
2191;SDS011;1102;49.718;11.902;2022-08-03T07:13:05;5.33;;;4.03;;
2191;SDS011;1102;49.718;11.902;2022-08-03T07:15:32;3.97;;;3.60;;
2191;SDS011;1102;49.718;11.902;2022-08-03T07:18:19;4.10;;;3.70;;
2191;SDS011;1102;49.718;11.902;2022-08-03T07:20:56;3.93;;;3.13;;
2191;SDS011;1102;49.718;11.902;2022-08-03T07:23:23;4.03;;;3.73;;
2191;SDS011;1102;49.718;11.902;2022-08-03T07:25:50;4.20;;;3.90;;
2191;SDS011;1102;49.718;11.902;2022-08-03T07:28:17;5.10;;;4.60;;
2191;SDS011;1102;49.718;11.902;2022-08-03T07:30:44;4.27;;;3.73;;
2191;SDS011;1102;49.718;11.902;2022-08-03T07:33:10;3.60;;;3.33;;
2191;SDS011;1102;49.718;11.902;2022-08-03T07:35:37;6.80;;;4.30;;
2191;SDS011;1102;49.718;11.902;2022-08-03T07:38:04;4.37;;;4.00;;
2191;SDS011;1102;49.718;11.902;2022-08-03T07:40:31;4.10;;;3.80;;
2191;SDS011;1102;49.718;11.902;2022-08-03T07:42:58;4.40;;;4.00;;
2191;SDS011;1102;49.718;11.902;2022-08-03T07:45:25;4.63;;;3.80;;
2191;SDS011;1102;49.718;11.902;2022-08-03T07:47:52;5.03;;;4.47;;
2191;SDS011;1102;49.718;11.902;2022-08-03T07:50:20;6.40;;;4.27;;
2191;SDS011;1102;49.718;11.902;2022-08-03T07:52:47;3.87;;;3.57;;
2191;SDS011;1102;49.718;11.902;2022-08-03T07:55:16;4.17;;;3.83;;
2191;SDS011;1102;49.718;11.902;2022-08-03T07:57:44;8.07;;;4.30;;
2191;SDS011;1102;49.718;11.902;2022-08-03T08:00:13;4.60;;;4.20;;
2191;SDS011;1102;49.718;11.902;2022-08-03T08:02:44;4.20;;;3.90;;
2191;SDS011;1102;49.718;11.902;2022-08-03T08:05:11;4.53;;;4.23;;
2191;SDS011;1102;49.718;11.902;2022-08-03T08:07:38;4.23;;;3.93;;
2191;SDS011;1102;49.718;11.902;2022-08-03T08:10:06;4.70;;;4.07;;
2191;SDS011;1102;49.718;11.902;2022-08-03T08:12:36;3.93;;;3.43;;
2191;SDS011;1102;49.718;11.902;2022-08-03T08:15:04;5.43;;;4.27;;
2191;SDS011;1102;49.718;11.902;2022-08-03T08:17:42;4.10;;;3.70;;
2191;SDS011;1102;49.718;11.902;2022-08-03T08:20:17;4.70;;;4.20;;
2191;SDS011;1102;49.718;11.902;2022-08-03T08:22:56;3.90;;;3.57;;
2191;SDS011;1102;49.718;11.902;2022-08-03T08:25:29;4.90;;;3.60;;
2191;SDS011;1102;49.718;11.902;2022-08-03T08:27:57;4.07;;;3.77;;
2191;SDS011;1102;49.718;11.902;2022-08-03T08:30:53;3.53;;;3.23;;
2191;SDS011;1102;49.718;11.902;2022-08-03T08:33:20;4.70;;;3.57;;
2191;SDS011;1102;49.718;11.902;2022-08-03T08:35:49;4.33;;;4.03;;
2191;SDS011;1102;49.718;11.902;2022-08-03T08:38:18;4.07;;;3.77;;
2191;SDS011;1102;49.718;11.902;2022-08-03T08:40:45;4.30;;;4.00;;
2191;SDS011;1102;49.718;11.902;2022-08-03T08:43:11;3.83;;;3.53;;
2191;SDS011;1102;49.718;11.902;2022-08-03T08:45:39;3.53;;;3.30;;
2191;SDS011;1102;49.718;11.902;2022-08-03T08:48:06;3.20;;;2.90;;
2191;SDS011;1102;49.718;11.902;2022-08-03T08:50:36;4.60;;;3.30;;
2191;SDS011;1102;49.718;11.902;2022-08-03T08:53:04;5.13;;;3.30;;
2191;SDS011;1102;49.718;11.902;2022-08-03T08:55:42;3.93;;;2.80;;
2191;SDS011;1102;49.718;11.902;2022-08-03T08:58:25;2.97;;;2.77;;
2191;SDS011;1102;49.718;11.902;2022-08-03T09:00:54;8.43;;;2.90;;
2191;SDS011;1102;49.718;11.902;2022-08-03T09:03:22;3.57;;;3.00;;
2191;SDS011;1102;49.718;11.902;2022-08-03T09:05:57;3.20;;;3.00;;
2191;SDS011;1102;49.718;11.902;2022-08-03T09:08:25;2.30;;;2.20;;
2191;SDS011;1102;49.718;11.902;2022-08-03T09:10:53;3.50;;;3.20;;
2191;SDS011;1102;49.718;11.902;2022-08-03T09:13:19;4.00;;;2.83;;
2191;SDS011;1102;49.718;11.902;2022-08-03T09:15:46;2.70;;;2.50;;
2191;SDS011;1102;49.718;11.902;2022-08-03T09:18:29;5.27;;;2.67;;
2191;SDS011;1102;49.718;11.902;2022-08-03T09:21:14;2.60;;;2.40;;
2191;SDS011;1102;49.718;11.902;2022-08-03T09:23:59;2.30;;;2.10;;
2191;SDS011;1102;49.718;11.902;2022-08-03T09:26:30;2.87;;;2.67;;
2191;SDS011;1102;49.718;11.902;2022-08-03T09:31:43;2.80;;;2.03;;
2191;SDS011;1102;49.718;11.902;2022-08-03T09:34:12;3.93;;;2.00;;
2191;SDS011;1102;49.718;11.902;2022-08-03T09:36:43;2.30;;;2.10;;
2191;SDS011;1102;49.718;11.902;2022-08-03T09:39:15;9.07;;;3.00;;
2191;SDS011;1102;49.718;11.902;2022-08-03T09:41:45;6.70;;;3.07;;
2191;SDS011;1102;49.718;11.902;2022-08-03T09:44:13;2.60;;;2.40;;
2191;SDS011;1102;49.718;11.902;2022-08-03T09:46:52;3.03;;;2.60;;
2191;SDS011;1102;49.718;11.902;2022-08-03T09:49:24;2.97;;;2.47;;
2191;SDS011;1102;49.718;11.902;2022-08-03T09:51:51;2.13;;;2.03;;
2191;SDS011;1102;49.718;11.902;2022-08-03T09:54:39;2.77;;;2.57;;
2191;SDS011;1102;49.718;11.902;2022-08-03T09:57:06;4.27;;;2.07;;
2191;SDS011;1102;49.718;11.902;2022-08-03T09:59:34;2.00;;;1.90;;
2191;SDS011;1102;49.718;11.902;2022-08-03T10:02:04;2.33;;;2.20;;
2191;SDS011;1102;49.718;11.902;2022-08-03T10:04:31;2.17;;;2.07;;
2191;SDS011;1102;49.718;11.902;2022-08-03T10:10:22;2.57;;;2.37;;
2191;SDS011;1102;49.718;11.902;2022-08-03T10:12:57;5.17;;;3.10;;
2191;SDS011;1102;49.718;11.902;2022-08-03T10:15:25;2.53;;;2.33;;
2191;SDS011;1102;49.718;11.902;2022-08-03T10:18:13;2.27;;;2.07;;
2191;SDS011;1102;49.718;11.902;2022-08-03T10:20:42;2.07;;;1.90;;
2191;SDS011;1102;49.718;11.902;2022-08-03T10:23:12;2.83;;;1.83;;
2191;SDS011;1102;49.718;11.902;2022-08-03T10:25:41;2.33;;;2.13;;
2191;SDS011;1102;49.718;11.902;2022-08-03T10:28:10;2.33;;;2.13;;
2191;SDS011;1102;49.718;11.902;2022-08-03T10:30:41;1.80;;;1.70;;
2191;SDS011;1102;49.718;11.902;2022-08-03T10:33:20;2.03;;;1.87;;
2191;SDS011;1102;49.718;11.902;2022-08-03T10:36:09;2.10;;;1.90;;
2191;SDS011;1102;49.718;11.902;2022-08-03T10:38:56;2.30;;;2.10;;
2191;SDS011;1102;49.718;11.902;2022-08-03T10:41:25;2.43;;;1.90;;
2191;SDS011;1102;49.718;11.902;2022-08-03T10:44:09;2.40;;;1.97;;
2191;SDS011;1102;49.718;11.902;2022-08-03T10:46:40;3.00;;;2.50;;
2191;SDS011;1102;49.718;11.902;2022-08-03T10:49:14;2.23;;;2.03;;
2191;SDS011;1102;49.718;11.902;2022-08-03T10:52:00;2.47;;;2.27;;
2191;SDS011;1102;49.718;11.902;2022-08-03T10:54:39;2.30;;;2.10;;
2191;SDS011;1102;49.718;11.902;2022-08-03T10:57:41;2.37;;;2.13;;
2191;SDS011;1102;49.718;11.902;2022-08-03T11:00:16;3.47;;;2.33;;
2191;SDS011;1102;49.718;11.902;2022-08-03T11:03:00;2.00;;;1.90;;
2191;SDS011;1102;49.718;11.902;2022-08-03T11:10:52;1.80;;;1.70;;
2191;SDS011;1102;49.718;11.902;2022-08-03T11:13:22;2.10;;;1.90;;
2191;SDS011;1102;49.718;11.902;2022-08-03T11:15:51;1.80;;;1.70;;
2191;SDS011;1102;49.718;11.902;2022-08-03T11:18:27;2.43;;;1.70;;
2191;SDS011;1102;49.718;11.902;2022-08-03T11:20:55;1.93;;;1.83;;
2191;SDS011;1102;49.718;11.902;2022-08-03T11:26:29;2.30;;;2.03;;
2191;SDS011;1102;49.718;11.902;2022-08-03T11:29:06;3.70;;;2.07;;
2191;SDS011;1102;49.718;11.902;2022-08-03T11:31:56;2.00;;;1.80;;
2191;SDS011;1102;49.718;11.902;2022-08-03T11:34:23;3.93;;;2.03;;
2191;SDS011;1102;49.718;11.902;2022-08-03T11:39:48;2.70;;;2.50;;
2191;SDS011;1102;49.718;11.902;2022-08-03T11:44:50;3.13;;;1.90;;
2191;SDS011;1102;49.718;11.902;2022-08-03T11:47:19;4.20;;;2.70;;
2191;SDS011;1102;49.718;11.902;2022-08-03T11:49:47;1.97;;;1.87;;
2191;SDS011;1102;49.718;11.902;2022-08-03T11:52:15;3.33;;;1.80;;
2191;SDS011;1102;49.718;11.902;2022-08-03T11:54:42;2.33;;;2.00;;
2191;SDS011;1102;49.718;11.902;2022-08-03T11:57:10;4.27;;;2.33;;
2191;SDS011;1102;49.718;11.902;2022-08-03T11:59:37;2.20;;;2.00;;
2191;SDS011;1102;49.718;11.902;2022-08-03T12:02:11;4.83;;;4.43;;
2191;SDS011;1102;49.718;11.902;2022-08-03T12:04:56;5.70;;;4.23;;
2191;SDS011;1102;49.718;11.902;2022-08-03T12:07:26;3.83;;;2.20;;
2191;SDS011;1102;49.718;11.902;2022-08-03T12:10:14;2.40;;;2.20;;
2191;SDS011;1102;49.718;11.902;2022-08-03T12:12:41;4.03;;;2.37;;
2191;SDS011;1102;49.718;11.902;2022-08-03T12:15:12;3.37;;;3.17;;
2191;SDS011;1102;49.718;11.902;2022-08-03T12:17:39;2.17;;;2.00;;
2191;SDS011;1102;49.718;11.902;2022-08-03T12:20:07;4.63;;;2.10;;
2191;SDS011;1102;49.718;11.902;2022-08-03T12:22:36;3.37;;;2.40;;
2191;SDS011;1102;49.718;11.902;2022-08-03T12:25:07;2.10;;;1.90;;
2191;SDS011;1102;49.718;11.902;2022-08-03T12:27:35;2.33;;;2.13;;
2191;SDS011;1102;49.718;11.902;2022-08-03T12:30:02;2.47;;;2.27;;
2191;SDS011;1102;49.718;11.902;2022-08-03T12:32:30;2.43;;;2.23;;
2191;SDS011;1102;49.718;11.902;2022-08-03T12:34:57;2.33;;;2.13;;
2191;SDS011;1102;49.718;11.902;2022-08-03T12:37:29;2.10;;;1.90;;
2191;SDS011;1102;49.718;11.902;2022-08-03T12:39:58;6.00;;;2.23;;
2191;SDS011;1102;49.718;11.902;2022-08-03T12:42:35;4.00;;;1.80;;
2191;SDS011;1102;49.718;11.902;2022-08-03T12:45:23;2.43;;;1.60;;
2191;SDS011;1102;49.718;11.902;2022-08-03T12:50:27;2.30;;;2.10;;
2191;SDS011;1102;49.718;11.902;2022-08-03T12:52:57;3.23;;;2.30;;
2191;SDS011;1102;49.718;11.902;2022-08-03T12:55:25;3.40;;;2.50;;
2191;SDS011;1102;49.718;11.902;2022-08-03T12:58:31;2.63;;;2.43;;
2191;SDS011;1102;49.718;11.902;2022-08-03T13:01:04;2.47;;;1.70;;
2191;SDS011;1102;49.718;11.902;2022-08-03T13:03:39;1.90;;;1.80;;
2191;SDS011;1102;49.718;11.902;2022-08-03T13:06:15;3.57;;;2.30;;
2191;SDS011;1102;49.718;11.902;2022-08-03T13:09:01;2.33;;;2.13;;
2191;SDS011;1102;49.718;11.902;2022-08-03T13:11:30;2.40;;;2.30;;
2191;SDS011;1102;49.718;11.902;2022-08-03T13:14:17;2.57;;;2.37;;
2191;SDS011;1102;49.718;11.902;2022-08-03T13:16:45;3.37;;;3.17;;
2191;SDS011;1102;49.718;11.902;2022-08-03T13:19:12;2.40;;;2.20;;
2191;SDS011;1102;49.718;11.902;2022-08-03T13:21:41;2.50;;;2.33;;
2191;SDS011;1102;49.718;11.902;2022-08-03T13:24:28;2.80;;;2.30;;
2191;SDS011;1102;49.718;11.902;2022-08-03T13:26:57;3.00;;;2.63;;
2191;SDS011;1102;49.718;11.902;2022-08-03T13:29:24;2.90;;;2.70;;
2191;SDS011;1102;49.718;11.902;2022-08-03T13:31:51;3.53;;;2.80;;
2191;SDS011;1102;49.718;11.902;2022-08-03T13:34:17;2.07;;;1.97;;
2191;SDS011;1102;49.718;11.902;2022-08-03T13:36:49;2.90;;;2.70;;
2191;SDS011;1102;49.718;11.902;2022-08-03T13:39:36;2.17;;;2.07;;
2191;SDS011;1102;49.718;11.902;2022-08-03T13:42:23;2.03;;;1.93;;
2191;SDS011;1102;49.718;11.902;2022-08-03T13:44:50;2.60;;;2.40;;
2191;SDS011;1102;49.718;11.902;2022-08-03T13:47:17;2.07;;;1.97;;
2191;SDS011;1102;49.718;11.902;2022-08-03T13:49:45;1.80;;;1.63;;
2191;SDS011;1102;49.718;11.902;2022-08-03T13:52:28;2.40;;;1.83;;
2191;SDS011;1102;49.718;11.902;2022-08-03T13:54:55;2.70;;;2.50;;
2191;SDS011;1102;49.718;11.902;2022-08-03T13:57:22;2.93;;;2.17;;
2191;SDS011;1102;49.718;11.902;2022-08-03T14:00:09;4.63;;;2.00;;
2191;SDS011;1102;49.718;11.902;2022-08-03T14:02:37;3.13;;;1.90;;
2191;SDS011;1102;49.718;11.902;2022-08-03T14:05:04;2.47;;;2.27;;
2191;SDS011;1102;49.718;11.902;2022-08-03T14:07:31;3.63;;;2.47;;
2191;SDS011;1102;49.718;11.902;2022-08-03T14:09:58;1.97;;;1.87;;
2191;SDS011;1102;49.718;11.902;2022-08-03T14:12:25;1.97;;;1.87;;
2191;SDS011;1102;49.718;11.902;2022-08-03T14:14:51;2.40;;;2.20;;
2191;SDS011;1102;49.718;11.902;2022-08-03T14:17:21;1.93;;;1.83;;
2191;SDS011;1102;49.718;11.902;2022-08-03T14:19:49;2.17;;;1.97;;
2191;SDS011;1102;49.718;11.902;2022-08-03T14:22:19;1.90;;;1.80;;
2191;SDS011;1102;49.718;11.902;2022-08-03T14:24:46;2.17;;;2.07;;
2191;SDS011;1102;49.718;11.902;2022-08-03T14:27:14;2.10;;;2.00;;
2191;SDS011;1102;49.718;11.902;2022-08-03T14:29:41;2.70;;;2.50;;
2191;SDS011;1102;49.718;11.902;2022-08-03T14:32:08;2.50;;;2.30;;
2191;SDS011;1102;49.718;11.902;2022-08-03T14:34:38;2.60;;;2.40;;
2191;SDS011;1102;49.718;11.902;2022-08-03T14:37:06;1.90;;;1.80;;
2191;SDS011;1102;49.718;11.902;2022-08-03T14:39:33;2.10;;;2.00;;
2191;SDS011;1102;49.718;11.902;2022-08-03T14:42:20;2.63;;;2.27;;
2191;SDS011;1102;49.718;11.902;2022-08-03T14:44:47;4.10;;;2.40;;
2191;SDS011;1102;49.718;11.902;2022-08-03T14:47:13;2.20;;;2.00;;
2191;SDS011;1102;49.718;11.902;2022-08-03T14:49:40;2.77;;;1.93;;
2191;SDS011;1102;49.718;11.902;2022-08-03T14:52:28;2.47;;;2.30;;
2191;SDS011;1102;49.718;11.902;2022-08-03T14:54:54;1.90;;;1.80;;
2191;SDS011;1102;49.718;11.902;2022-08-03T14:57:21;2.13;;;1.97;;
2191;SDS011;1102;49.718;11.902;2022-08-03T14:59:48;2.07;;;1.97;;
2191;SDS011;1102;49.718;11.902;2022-08-03T15:02:23;2.23;;;1.93;;
2191;SDS011;1102;49.718;11.902;2022-08-03T15:04:51;2.90;;;1.90;;
2191;SDS011;1102;49.718;11.902;2022-08-03T15:07:17;7.53;;;2.00;;
2191;SDS011;1102;49.718;11.902;2022-08-03T15:09:46;2.80;;;2.23;;
2191;SDS011;1102;49.718;11.902;2022-08-03T15:12:13;2.03;;;1.93;;
2191;SDS011;1102;49.718;11.902;2022-08-03T15:14:39;2.97;;;2.33;;
2191;SDS011;1102;49.718;11.902;2022-08-03T15:17:06;1.93;;;1.83;;
2191;SDS011;1102;49.718;11.902;2022-08-03T15:19:33;2.00;;;1.87;;
2191;SDS011;1102;49.718;11.902;2022-08-03T15:22:20;2.57;;;2.00;;
2191;SDS011;1102;49.718;11.902;2022-08-03T15:24:50;2.97;;;2.20;;
2191;SDS011;1102;49.718;11.902;2022-08-03T15:27:17;3.30;;;2.40;;
2191;SDS011;1102;49.718;11.902;2022-08-03T15:29:44;2.50;;;2.30;;
2191;SDS011;1102;49.718;11.902;2022-08-03T15:32:32;2.27;;;2.10;;
2191;SDS011;1102;49.718;11.902;2022-08-03T15:34:59;2.60;;;1.93;;
2191;SDS011;1102;49.718;11.902;2022-08-03T15:37:26;2.13;;;2.03;;
2191;SDS011;1102;49.718;11.902;2022-08-03T15:39:53;2.27;;;1.77;;
2191;SDS011;1102;49.718;11.902;2022-08-03T15:42:26;1.90;;;1.80;;
2191;SDS011;1102;49.718;11.902;2022-08-03T15:44:58;2.20;;;2.00;;
2191;SDS011;1102;49.718;11.902;2022-08-03T15:47:25;1.83;;;1.73;;
2191;SDS011;1102;49.718;11.902;2022-08-03T15:49:52;3.20;;;2.10;;
2191;SDS011;1102;49.718;11.902;2022-08-03T15:52:18;1.80;;;1.70;;
2191;SDS011;1102;49.718;11.902;2022-08-03T15:54:45;3.33;;;2.13;;
2191;SDS011;1102;49.718;11.902;2022-08-03T15:57:12;2.67;;;2.47;;
2191;SDS011;1102;49.718;11.902;2022-08-03T15:59:39;2.70;;;2.50;;